GCTSGMAD

Guest
Details From GCTS - Tenerife Sur
To GMAD - Al Massira
Flight Number -
Tags Generated
Created
Modified
Stats Distance 400 nm / 740 km
Max Altitude 0 ft / 0 m
Waypoints 3
Social Downloads 5
Likes 0
Share VATSIM

Download

Looking for another format? Having issues loading an existing format? Contact us
Advertisement - Login to hide

Notes

Generated

Route

GCTS AML GMAD

ID Type Via Altitude Latitude Longitude Leg Dist Tot Dist Heading (true) Name
O GCTS APT - 0 ft / 0 m 28.03920˚ -16.58764˚ - 0 nm - -
AML NDB - 0 ft / 0 m 30.32361˚ -9.45472˚ 398 nm 398 nm 68° / 72° AGADIR NDB
O GMAD APT - 0 ft / 0 m 30.32539˚ -9.42970˚ 1 nm 399 nm 85° / 85° -

Altitude Profile

Advertisement - Login to hide

Weather


0- 5 10 15 20 25 30 35+ Temperature / ° C

Clouds and Precipitation
Forecast for 2017-12-15 00:00 UTC. Updated 2 hours ago

Ground ~20,000 ft ~40,000 ft Winds

GCTS

Details ICAO GCTS (TFS)
Name Tenerife Sur
Region Canary Islands
Timezone Atlantic/Canary (UTC+0.0)
Stats Elevation 209 ft / 64 m (AMSL)
Location 28.044475° -16.572488°
Runways 1
Magnetic Variation 5.117° W

METAR

GCTS 142100Z 06011KT CAVOK 18/10 Q1026 NOSIG

Decode

TAF

TAF GCTS 142000Z 1421/1521 04014KT CAVOK TX24/1514Z TN15/1506Z BECMG 1502/1504 35004KT

Decode

Departure Runways

ID Width Length Bearing (true) Bearing (mag) Surface Threshold Offset Overrun Length
08 148 ft / 45 m 10,489 ft / 3,197 m 68.47° 73.59° Asphalt 0 ft / 0 m 0 ft / 0 m
26 148 ft / 45 m 10,489 ft / 3,197 m 248.49° 253.61° Asphalt 0 ft / 0 m 0 ft / 0 m

GMAD

Details ICAO GMAD
Name Agadir AL MASSIRA
Region Morocco
Timezone Africa/Casablanca (UTC+0.0)
Stats Elevation 250 ft / 76 m (AMSL)
Location 30.322623° -9.411528°
Runways 1
Magnetic Variation 2.482° W

METAR

GMAD 142100Z 19009KT CAVOK 15/12 Q1021 NOSIG

Decode

TAF

TAF GMAD 141700Z 1418/1524 22007KT CAVOK= TAF GMME 141700Z 1418/1524 36006KT CAVOK TEMPO 1500/1506 14008KT 6000 SCT010 BKN020 PROB40 TEMPO 1512/1518 24014KT 5000 RA BKN010 SCT016 BKN080 TEMPO 1518/1524 18012KT 3000 SHRA SCT012TCU BKN016 FEW023CB

Decode

Destination Runways

ID Width Length Bearing (true) Bearing (mag) Surface Threshold Offset Overrun Length
10 148 ft / 45 m 10,509 ft / 3,203 m 91.58° 94.06° Asphalt 0 ft / 0 m 0 ft / 0 m
28 148 ft / 45 m 10,509 ft / 3,203 m 271.60° 274.08° Asphalt 0 ft / 0 m 0 ft / 0 m

Approach Navaids

Runway Type Ident Frequency Range Bearing (true) Bearing (mag) Slope Elevation
28 Localiser ADA 110.30 MHz 18 nm / 33 km 273.07° 275.55° - 250 ft / 76 m (AMSL)
28 Glidescope ADA 110.30 MHz 10 nm / 19 km 271.59° 274.07° 3.00° 250 ft / 76 m (AMSL)

Popular Alternatives